ENRA

Mo i Rana , Røssvoll Airport

Mo i Rana, Norway
TAF ENRA 141700Z 1418/1423 VRB05KT 9999 FEW050
Issued Valid From Valid To
Dec-14 @ 17:00 UTC
(5 hours ago)
Dec-14 @ 18:00 UTC
(4 hours ago)
Dec-14 @ 23:00 UTC
(in an hour)
Dec-14 @ 18:00 to Dec-14 @ 23:00
TAF ENRA 141700Z 1418/1423 VRB05KT 9999 FEW050
Wind Visibility Clouds
Variable at 5 knots 10,000+ meters
  • Few at 5,000' AGL
TAF ENRA 141700Z 1418/1423 VRB05KT 9999 FEW050
Issued Dec-14 @ 17:00 UTC
(5 hours ago)
Valid From Dec-14 @ 18:00 UTC
(4 hours ago)
Valid To Dec-14 @ 23:00 UTC
(in an hour)
Dec-14 @ 18:00 - Dec-14 @ 23:00
Wind Visibility
Variable at 5 knots 10,000+ meters
Clouds
  • Few at 5,000' AGL